sensor_id;sensor_type;location;lat;lon;timestamp;temperature;humidity
20845;DHT22;10583;49.084;8.646;2023-03-19T00:02:25;9.10;99.90
20845;DHT22;10583;49.084;8.646;2023-03-19T00:04:52;9.20;99.90
20845;DHT22;10583;49.084;8.646;2023-03-19T00:07:19;9.20;99.90
20845;DHT22;10583;49.084;8.646;2023-03-19T00:09:46;9.20;99.90
20845;DHT22;10583;49.084;8.646;2023-03-19T00:12:13;9.30;99.90
20845;DHT22;10583;49.084;8.646;2023-03-19T00:14:40;9.30;99.90
20845;DHT22;10583;49.084;8.646;2023-03-19T00:17:07;9.30;99.90
20845;DHT22;10583;49.084;8.646;2023-03-19T00:19:35;9.20;99.90
20845;DHT22;10583;49.084;8.646;2023-03-19T00:22:02;9.10;99.90
20845;DHT22;10583;49.084;8.646;2023-03-19T00:24:29;9.10;99.90
20845;DHT22;10583;49.084;8.646;2023-03-19T00:26:55;9.20;99.90
20845;DHT22;10583;49.084;8.646;2023-03-19T00:29:22;9.20;99.90
20845;DHT22;10583;49.084;8.646;2023-03-19T00:31:49;9.20;99.90
20845;DHT22;10583;49.084;8.646;2023-03-19T00:34:16;9.30;99.90
20845;DHT22;10583;49.084;8.646;2023-03-19T00:36:45;9.30;99.90
20845;DHT22;10583;49.084;8.646;2023-03-19T00:39:12;9.30;99.90
20845;DHT22;10583;49.084;8.646;2023-03-19T00:41:38;9.30;99.90
20845;DHT22;10583;49.084;8.646;2023-03-19T00:44:05;9.30;99.90
20845;DHT22;10583;49.084;8.646;2023-03-19T00:46:32;9.30;99.90
20845;DHT22;10583;49.084;8.646;2023-03-19T00:49:00;9.40;99.90
20845;DHT22;10583;49.084;8.646;2023-03-19T00:51:26;9.40;99.90
20845;DHT22;10583;49.084;8.646;2023-03-19T00:53:55;9.40;99.90
20845;DHT22;10583;49.084;8.646;2023-03-19T00:56:21;9.40;99.90
20845;DHT22;10583;49.084;8.646;2023-03-19T00:58:48;9.40;99.90
20845;DHT22;10583;49.084;8.646;2023-03-19T01:01:16;9.40;99.90
20845;DHT22;10583;49.084;8.646;2023-03-19T01:03:43;9.40;99.90
20845;DHT22;10583;49.084;8.646;2023-03-19T01:06:11;9.40;99.90
20845;DHT22;10583;49.084;8.646;2023-03-19T01:08:38;9.30;99.90
20845;DHT22;10583;49.084;8.646;2023-03-19T01:11:09;9.30;99.90
20845;DHT22;10583;49.084;8.646;2023-03-19T01:13:37;9.20;99.90
20845;DHT22;10583;49.084;8.646;2023-03-19T01:16:04;9.10;99.90
20845;DHT22;10583;49.084;8.646;2023-03-19T01:18:31;9.10;99.90
20845;DHT22;10583;49.084;8.646;2023-03-19T01:20:58;9.10;99.90
20845;DHT22;10583;49.084;8.646;2023-03-19T01:23:25;9.00;99.90
20845;DHT22;10583;49.084;8.646;2023-03-19T01:25:51;9.00;99.90
20845;DHT22;10583;49.084;8.646;2023-03-19T01:28:20;9.10;99.90
20845;DHT22;10583;49.084;8.646;2023-03-19T01:30:46;9.10;99.90
20845;DHT22;10583;49.084;8.646;2023-03-19T01:33:13;9.20;99.90
20845;DHT22;10583;49.084;8.646;2023-03-19T01:35:40;9.20;99.90
20845;DHT22;10583;49.084;8.646;2023-03-19T01:38:08;9.20;99.90
20845;DHT22;10583;49.084;8.646;2023-03-19T01:40:35;9.30;99.90
20845;DHT22;10583;49.084;8.646;2023-03-19T01:43:14;9.30;99.90
20845;DHT22;10583;49.084;8.646;2023-03-19T01:45:44;9.30;99.90
20845;DHT22;10583;49.084;8.646;2023-03-19T01:48:26;9.30;99.90
20845;DHT22;10583;49.084;8.646;2023-03-19T01:50:55;9.40;99.90
20845;DHT22;10583;49.084;8.646;2023-03-19T01:53:30;9.40;99.90
20845;DHT22;10583;49.084;8.646;2023-03-19T01:56:02;9.40;99.90
20845;DHT22;10583;49.084;8.646;2023-03-19T01:58:29;9.40;99.90
20845;DHT22;10583;49.084;8.646;2023-03-19T02:00:58;9.40;99.90
20845;DHT22;10583;49.084;8.646;2023-03-19T02:03:25;9.40;99.90
20845;DHT22;10583;49.084;8.646;2023-03-19T02:05:52;9.40;99.90
20845;DHT22;10583;49.084;8.646;2023-03-19T02:08:21;9.30;99.90
20845;DHT22;10583;49.084;8.646;2023-03-19T02:10:49;9.20;99.90
20845;DHT22;10583;49.084;8.646;2023-03-19T02:13:17;9.20;99.90
20845;DHT22;10583;49.084;8.646;2023-03-19T02:15:43;9.20;99.90
20845;DHT22;10583;49.084;8.646;2023-03-19T02:18:12;9.20;99.90
20845;DHT22;10583;49.084;8.646;2023-03-19T02:20:43;9.20;99.90
20845;DHT22;10583;49.084;8.646;2023-03-19T02:23:21;9.10;99.90
20845;DHT22;10583;49.084;8.646;2023-03-19T02:26:03;9.20;99.90
20845;DHT22;10583;49.084;8.646;2023-03-19T02:28:33;9.10;99.90
20845;DHT22;10583;49.084;8.646;2023-03-19T02:31:01;9.20;99.90
20845;DHT22;10583;49.084;8.646;2023-03-19T02:33:27;9.10;99.90
20845;DHT22;10583;49.084;8.646;2023-03-19T02:35:55;9.10;99.90
20845;DHT22;10583;49.084;8.646;2023-03-19T02:38:24;9.10;99.90
20845;DHT22;10583;49.084;8.646;2023-03-19T02:40:52;9.20;99.90
20845;DHT22;10583;49.084;8.646;2023-03-19T02:43:22;9.20;99.90
20845;DHT22;10583;49.084;8.646;2023-03-19T02:45:49;9.20;99.90
20845;DHT22;10583;49.084;8.646;2023-03-19T02:48:16;9.10;99.90
20845;DHT22;10583;49.084;8.646;2023-03-19T02:50:43;9.00;99.90
20845;DHT22;10583;49.084;8.646;2023-03-19T02:53:10;9.00;99.90
20845;DHT22;10583;49.084;8.646;2023-03-19T02:55:37;8.90;99.90
20845;DHT22;10583;49.084;8.646;2023-03-19T02:58:04;8.90;99.90
20845;DHT22;10583;49.084;8.646;2023-03-19T03:00:32;8.80;99.90
20845;DHT22;10583;49.084;8.646;2023-03-19T03:03:00;8.80;99.90
20845;DHT22;10583;49.084;8.646;2023-03-19T03:05:27;8.80;99.90
20845;DHT22;10583;49.084;8.646;2023-03-19T03:07:53;8.80;99.90
20845;DHT22;10583;49.084;8.646;2023-03-19T03:10:20;8.80;99.90
20845;DHT22;10583;49.084;8.646;2023-03-19T03:12:47;8.70;99.90
20845;DHT22;10583;49.084;8.646;2023-03-19T03:15:13;8.70;99.90
20845;DHT22;10583;49.084;8.646;2023-03-19T03:17:42;8.60;99.90
20845;DHT22;10583;49.084;8.646;2023-03-19T03:20:11;8.70;99.90
20845;DHT22;10583;49.084;8.646;2023-03-19T03:22:38;8.70;99.90
20845;DHT22;10583;49.084;8.646;2023-03-19T03:25:07;8.70;99.90
20845;DHT22;10583;49.084;8.646;2023-03-19T03:27:35;8.70;99.90
20845;DHT22;10583;49.084;8.646;2023-03-19T03:30:02;8.70;99.90
20845;DHT22;10583;49.084;8.646;2023-03-19T03:32:29;8.70;99.90
20845;DHT22;10583;49.084;8.646;2023-03-19T03:34:57;8.70;99.90
20845;DHT22;10583;49.084;8.646;2023-03-19T03:37:24;8.70;99.90
20845;DHT22;10583;49.084;8.646;2023-03-19T03:39:51;8.70;99.90
20845;DHT22;10583;49.084;8.646;2023-03-19T03:42:18;8.70;99.90
20845;DHT22;10583;49.084;8.646;2023-03-19T03:44:45;8.70;99.90
20845;DHT22;10583;49.084;8.646;2023-03-19T03:47:12;8.70;99.90
20845;DHT22;10583;49.084;8.646;2023-03-19T03:49:39;8.70;99.90
20845;DHT22;10583;49.084;8.646;2023-03-19T03:52:07;8.70;99.90
20845;DHT22;10583;49.084;8.646;2023-03-19T03:54:34;8.70;99.90
20845;DHT22;10583;49.084;8.646;2023-03-19T03:57:01;8.70;99.90
20845;DHT22;10583;49.084;8.646;2023-03-19T03:59:28;8.70;99.90
20845;DHT22;10583;49.084;8.646;2023-03-19T04:01:55;8.60;99.90
20845;DHT22;10583;49.084;8.646;2023-03-19T04:04:21;8.70;99.90
20845;DHT22;10583;49.084;8.646;2023-03-19T04:06:48;8.70;99.90
20845;DHT22;10583;49.084;8.646;2023-03-19T04:09:16;8.70;99.90
20845;DHT22;10583;49.084;8.646;2023-03-19T04:11:44;8.80;99.90
20845;DHT22;10583;49.084;8.646;2023-03-19T04:14:10;8.80;99.90
20845;DHT22;10583;49.084;8.646;2023-03-19T04:16:37;8.90;99.90
20845;DHT22;10583;49.084;8.646;2023-03-19T04:19:04;8.90;99.90
20845;DHT22;10583;49.084;8.646;2023-03-19T04:21:32;8.90;99.90
20845;DHT22;10583;49.084;8.646;2023-03-19T04:23:59;8.90;99.90
20845;DHT22;10583;49.084;8.646;2023-03-19T04:26:28;8.90;99.90
20845;DHT22;10583;49.084;8.646;2023-03-19T04:28:54;8.90;99.90
20845;DHT22;10583;49.084;8.646;2023-03-19T04:31:23;8.90;99.90
20845;DHT22;10583;49.084;8.646;2023-03-19T04:33:49;8.80;99.90
20845;DHT22;10583;49.084;8.646;2023-03-19T04:36:16;8.80;99.90
20845;DHT22;10583;49.084;8.646;2023-03-19T04:38:44;8.70;99.90
20845;DHT22;10583;49.084;8.646;2023-03-19T04:41:11;8.70;99.90
20845;DHT22;10583;49.084;8.646;2023-03-19T04:43:39;8.60;99.90
20845;DHT22;10583;49.084;8.646;2023-03-19T04:46:06;8.70;99.90
20845;DHT22;10583;49.084;8.646;2023-03-19T04:48:33;8.70;99.90
20845;DHT22;10583;49.084;8.646;2023-03-19T04:51:00;8.70;99.90
20845;DHT22;10583;49.084;8.646;2023-03-19T04:53:28;8.70;99.90
20845;DHT22;10583;49.084;8.646;2023-03-19T04:55:55;8.60;99.90
20845;DHT22;10583;49.084;8.646;2023-03-19T04:58:22;8.60;99.90
20845;DHT22;10583;49.084;8.646;2023-03-19T05:00:50;8.60;99.90
20845;DHT22;10583;49.084;8.646;2023-03-19T05:03:17;8.60;99.90
20845;DHT22;10583;49.084;8.646;2023-03-19T05:05:43;8.50;99.90
20845;DHT22;10583;49.084;8.646;2023-03-19T05:08:10;8.50;99.90
20845;DHT22;10583;49.084;8.646;2023-03-19T05:10:38;8.50;99.90
20845;DHT22;10583;49.084;8.646;2023-03-19T05:13:05;8.60;99.90
20845;DHT22;10583;49.084;8.646;2023-03-19T05:15:32;8.50;99.90
20845;DHT22;10583;49.084;8.646;2023-03-19T05:18:01;8.60;99.90
20845;DHT22;10583;49.084;8.646;2023-03-19T05:20:27;8.60;99.90
20845;DHT22;10583;49.084;8.646;2023-03-19T05:22:54;8.70;99.90
20845;DHT22;10583;49.084;8.646;2023-03-19T05:25:21;8.70;99.90
20845;DHT22;10583;49.084;8.646;2023-03-19T05:27:48;8.80;99.90
20845;DHT22;10583;49.084;8.646;2023-03-19T05:30:14;8.80;99.90
20845;DHT22;10583;49.084;8.646;2023-03-19T05:32:42;8.90;99.90
20845;DHT22;10583;49.084;8.646;2023-03-19T05:35:13;8.90;99.90
20845;DHT22;10583;49.084;8.646;2023-03-19T05:37:39;8.90;99.90
20845;DHT22;10583;49.084;8.646;2023-03-19T05:40:07;8.90;99.90
20845;DHT22;10583;49.084;8.646;2023-03-19T05:42:35;8.90;99.90
20845;DHT22;10583;49.084;8.646;2023-03-19T05:45:02;8.90;99.90
20845;DHT22;10583;49.084;8.646;2023-03-19T05:47:30;9.00;99.90
20845;DHT22;10583;49.084;8.646;2023-03-19T05:49:57;9.00;99.90
20845;DHT22;10583;49.084;8.646;2023-03-19T05:52:25;9.00;99.90
20845;DHT22;10583;49.084;8.646;2023-03-19T05:54:51;9.00;99.90
20845;DHT22;10583;49.084;8.646;2023-03-19T05:57:18;9.00;99.90
20845;DHT22;10583;49.084;8.646;2023-03-19T05:59:45;9.00;99.90
20845;DHT22;10583;49.084;8.646;2023-03-19T06:02:12;9.00;99.90
20845;DHT22;10583;49.084;8.646;2023-03-19T06:04:39;9.00;99.90
20845;DHT22;10583;49.084;8.646;2023-03-19T06:07:06;9.00;99.90
20845;DHT22;10583;49.084;8.646;2023-03-19T06:09:34;8.90;99.90
20845;DHT22;10583;49.084;8.646;2023-03-19T06:12:01;8.90;99.90
20845;DHT22;10583;49.084;8.646;2023-03-19T06:14:28;8.90;99.90
20845;DHT22;10583;49.084;8.646;2023-03-19T06:16:55;8.90;99.90
20845;DHT22;10583;49.084;8.646;2023-03-19T06:19:22;8.90;99.90
20845;DHT22;10583;49.084;8.646;2023-03-19T06:21:49;9.00;99.90
20845;DHT22;10583;49.084;8.646;2023-03-19T06:24:15;9.00;99.90
20845;DHT22;10583;49.084;8.646;2023-03-19T06:26:43;9.10;99.90
20845;DHT22;10583;49.084;8.646;2023-03-19T06:29:10;9.20;99.90
20845;DHT22;10583;49.084;8.646;2023-03-19T06:31:37;9.20;99.90
20845;DHT22;10583;49.084;8.646;2023-03-19T06:34:06;9.30;99.90
20845;DHT22;10583;49.084;8.646;2023-03-19T06:36:33;9.30;99.90
20845;DHT22;10583;49.084;8.646;2023-03-19T06:38:59;9.40;99.90
20845;DHT22;10583;49.084;8.646;2023-03-19T06:41:27;9.50;99.90
20845;DHT22;10583;49.084;8.646;2023-03-19T06:43:55;9.50;99.90
20845;DHT22;10583;49.084;8.646;2023-03-19T06:46:22;9.50;99.90
20845;DHT22;10583;49.084;8.646;2023-03-19T06:48:49;9.60;99.90
20845;DHT22;10583;49.084;8.646;2023-03-19T06:51:16;9.60;99.90
20845;DHT22;10583;49.084;8.646;2023-03-19T06:53:42;9.70;99.90
20845;DHT22;10583;49.084;8.646;2023-03-19T06:56:09;9.80;99.90
20845;DHT22;10583;49.084;8.646;2023-03-19T06:58:36;9.80;99.90
20845;DHT22;10583;49.084;8.646;2023-03-19T07:01:04;9.90;99.90
20845;DHT22;10583;49.084;8.646;2023-03-19T07:03:31;10.00;99.90
20845;DHT22;10583;49.084;8.646;2023-03-19T07:05:57;10.00;99.90
20845;DHT22;10583;49.084;8.646;2023-03-19T07:08:24;10.10;99.90
20845;DHT22;10583;49.084;8.646;2023-03-19T07:10:54;10.10;99.90
20845;DHT22;10583;49.084;8.646;2023-03-19T07:13:21;10.20;99.90
20845;DHT22;10583;49.084;8.646;2023-03-19T07:15:47;10.20;99.90
20845;DHT22;10583;49.084;8.646;2023-03-19T07:18:15;10.30;99.90
20845;DHT22;10583;49.084;8.646;2023-03-19T07:20:42;10.40;99.90
20845;DHT22;10583;49.084;8.646;2023-03-19T07:23:09;10.50;99.90
20845;DHT22;10583;49.084;8.646;2023-03-19T07:25:35;10.60;99.90
20845;DHT22;10583;49.084;8.646;2023-03-19T07:28:02;10.80;99.90
20845;DHT22;10583;49.084;8.646;2023-03-19T07:30:29;11.00;99.90
20845;DHT22;10583;49.084;8.646;2023-03-19T07:32:57;11.20;99.90
20845;DHT22;10583;49.084;8.646;2023-03-19T07:35:25;11.40;99.90
20845;DHT22;10583;49.084;8.646;2023-03-19T07:37:52;11.50;99.90
20845;DHT22;10583;49.084;8.646;2023-03-19T07:40:19;11.60;99.90
20845;DHT22;10583;49.084;8.646;2023-03-19T07:42:45;11.60;99.90
20845;DHT22;10583;49.084;8.646;2023-03-19T07:45:12;11.50;99.90
20845;DHT22;10583;49.084;8.646;2023-03-19T07:47:39;11.40;99.90
20845;DHT22;10583;49.084;8.646;2023-03-19T07:50:07;11.50;99.90
20845;DHT22;10583;49.084;8.646;2023-03-19T07:52:36;11.50;99.90
20845;DHT22;10583;49.084;8.646;2023-03-19T07:55:03;11.50;99.90
20845;DHT22;10583;49.084;8.646;2023-03-19T07:57:29;11.70;99.90
20845;DHT22;10583;49.084;8.646;2023-03-19T07:59:57;11.80;99.90
20845;DHT22;10583;49.084;8.646;2023-03-19T08:02:30;12.00;99.90
20845;DHT22;10583;49.084;8.646;2023-03-19T08:04:56;12.10;99.90
20845;DHT22;10583;49.084;8.646;2023-03-19T08:07:26;12.30;99.90
20845;DHT22;10583;49.084;8.646;2023-03-19T08:09:54;12.40;99.90
20845;DHT22;10583;49.084;8.646;2023-03-19T08:12:21;12.70;99.90
20845;DHT22;10583;49.084;8.646;2023-03-19T08:14:48;13.10;99.90
20845;DHT22;10583;49.084;8.646;2023-03-19T08:17:15;13.50;99.90
20845;DHT22;10583;49.084;8.646;2023-03-19T08:19:42;13.80;99.90
20845;DHT22;10583;49.084;8.646;2023-03-19T08:22:09;13.70;99.90
20845;DHT22;10583;49.084;8.646;2023-03-19T08:24:36;13.60;99.90
20845;DHT22;10583;49.084;8.646;2023-03-19T08:27:05;13.70;99.90
20845;DHT22;10583;49.084;8.646;2023-03-19T08:29:32;13.60;99.90
20845;DHT22;10583;49.084;8.646;2023-03-19T08:31:59;13.50;99.90
20845;DHT22;10583;49.084;8.646;2023-03-19T08:34:26;13.50;99.90
20845;DHT22;10583;49.084;8.646;2023-03-19T08:36:53;13.90;99.90
20845;DHT22;10583;49.084;8.646;2023-03-19T08:39:19;14.20;99.90
20845;DHT22;10583;49.084;8.646;2023-03-19T08:41:46;14.30;99.90
20845;DHT22;10583;49.084;8.646;2023-03-19T08:44:15;14.30;99.90
20845;DHT22;10583;49.084;8.646;2023-03-19T08:46:42;14.30;99.90
20845;DHT22;10583;49.084;8.646;2023-03-19T08:49:08;14.50;99.90
20845;DHT22;10583;49.084;8.646;2023-03-19T08:51:35;14.70;99.90
20845;DHT22;10583;49.084;8.646;2023-03-19T08:54:02;14.70;99.90
20845;DHT22;10583;49.084;8.646;2023-03-19T08:56:29;14.60;99.90
20845;DHT22;10583;49.084;8.646;2023-03-19T08:58:56;14.50;99.90
20845;DHT22;10583;49.084;8.646;2023-03-19T09:01:24;14.70;99.90
20845;DHT22;10583;49.084;8.646;2023-03-19T09:03:51;14.80;99.90
20845;DHT22;10583;49.084;8.646;2023-03-19T09:06:18;14.90;99.90
20845;DHT22;10583;49.084;8.646;2023-03-19T09:08:44;15.00;99.90
20845;DHT22;10583;49.084;8.646;2023-03-19T09:11:12;15.10;99.90
20845;DHT22;10583;49.084;8.646;2023-03-19T09:13:41;15.00;99.90
20845;DHT22;10583;49.084;8.646;2023-03-19T09:16:08;15.00;99.90
20845;DHT22;10583;49.084;8.646;2023-03-19T09:18:36;15.10;99.90
20845;DHT22;10583;49.084;8.646;2023-03-19T09:21:03;15.10;99.90
20845;DHT22;10583;49.084;8.646;2023-03-19T09:23:30;15.10;99.90
20845;DHT22;10583;49.084;8.646;2023-03-19T09:25:57;15.10;99.90
20845;DHT22;10583;49.084;8.646;2023-03-19T09:28:23;15.10;99.90
20845;DHT22;10583;49.084;8.646;2023-03-19T09:30:50;15.20;99.90
20845;DHT22;10583;49.084;8.646;2023-03-19T09:33:19;15.70;99.90
20845;DHT22;10583;49.084;8.646;2023-03-19T09:35:50;16.60;99.90
20845;DHT22;10583;49.084;8.646;2023-03-19T09:38:18;17.40;99.90
20845;DHT22;10583;49.084;8.646;2023-03-19T09:40:46;17.90;99.90
20845;DHT22;10583;49.084;8.646;2023-03-19T09:43:32;17.70;99.90
20845;DHT22;10583;49.084;8.646;2023-03-19T09:46:09;17.50;99.90
20845;DHT22;10583;49.084;8.646;2023-03-19T09:48:42;17.20;99.90
20845;DHT22;10583;49.084;8.646;2023-03-19T09:51:18;17.00;99.90
20845;DHT22;10583;49.084;8.646;2023-03-19T09:53:49;16.80;99.90
20845;DHT22;10583;49.084;8.646;2023-03-19T09:56:19;16.60;99.90
20845;DHT22;10583;49.084;8.646;2023-03-19T09:58:46;16.60;99.90
20845;DHT22;10583;49.084;8.646;2023-03-19T10:01:23;16.70;99.90
20845;DHT22;10583;49.084;8.646;2023-03-19T10:06:44;17.00;99.90
20845;DHT22;10583;49.084;8.646;2023-03-19T10:09:32;17.30;99.90
20845;DHT22;10583;49.084;8.646;2023-03-19T10:12:10;17.80;99.90
20845;DHT22;10583;49.084;8.646;2023-03-19T10:14:50;18.20;99.90
20845;DHT22;10583;49.084;8.646;2023-03-19T10:17:26;18.20;99.90
20845;DHT22;10583;49.084;8.646;2023-03-19T10:19:56;18.60;99.90
20845;DHT22;10583;49.084;8.646;2023-03-19T10:22:29;19.10;99.90
20845;DHT22;10583;49.084;8.646;2023-03-19T10:24:59;19.30;98.60
20845;DHT22;10583;49.084;8.646;2023-03-19T10:27:27;19.50;98.90
20845;DHT22;10583;49.084;8.646;2023-03-19T10:29:54;19.90;98.60
20845;DHT22;10583;49.084;8.646;2023-03-19T10:32:30;19.90;99.10
20845;DHT22;10583;49.084;8.646;2023-03-19T10:35:06;20.30;97.70
20845;DHT22;10583;49.084;8.646;2023-03-19T10:37:35;20.40;96.70
20845;DHT22;10583;49.084;8.646;2023-03-19T10:40:13;20.20;97.60
20845;DHT22;10583;49.084;8.646;2023-03-19T10:43:02;20.10;96.50
20845;DHT22;10583;49.084;8.646;2023-03-19T10:45:31;19.90;96.30
20845;DHT22;10583;49.084;8.646;2023-03-19T10:48:00;19.80;97.20
20845;DHT22;10583;49.084;8.646;2023-03-19T10:50:29;19.60;96.50
20845;DHT22;10583;49.084;8.646;2023-03-19T10:53:05;19.10;97.30
20845;DHT22;10583;49.084;8.646;2023-03-19T10:55:33;18.60;97.80
20845;DHT22;10583;49.084;8.646;2023-03-19T10:58:04;18.40;97.20
20845;DHT22;10583;49.084;8.646;2023-03-19T11:00:32;18.00;98.60
20845;DHT22;10583;49.084;8.646;2023-03-19T11:03:00;17.80;99.90
20845;DHT22;10583;49.084;8.646;2023-03-19T11:05:30;17.60;99.90
20845;DHT22;10583;49.084;8.646;2023-03-19T11:07:59;17.60;99.90
20845;DHT22;10583;49.084;8.646;2023-03-19T11:10:29;17.60;99.90
20845;DHT22;10583;49.084;8.646;2023-03-19T11:12:58;17.80;99.80
20845;DHT22;10583;49.084;8.646;2023-03-19T11:15:29;18.00;98.60
20845;DHT22;10583;49.084;8.646;2023-03-19T11:17:59;18.40;99.70
20845;DHT22;10583;49.084;8.646;2023-03-19T11:20:28;19.30;97.60
20845;DHT22;10583;49.084;8.646;2023-03-19T11:22:57;19.70;96.50
20845;DHT22;10583;49.084;8.646;2023-03-19T11:25:40;19.70;96.20
20845;DHT22;10583;49.084;8.646;2023-03-19T11:28:10;19.50;96.80
20845;DHT22;10583;49.084;8.646;2023-03-19T11:30:45;19.30;97.10
20845;DHT22;10583;49.084;8.646;2023-03-19T11:33:27;19.10;97.60
20845;DHT22;10583;49.084;8.646;2023-03-19T11:36:02;18.90;97.00
20845;DHT22;10583;49.084;8.646;2023-03-19T11:38:38;18.70;97.70
20845;DHT22;10583;49.084;8.646;2023-03-19T11:41:14;18.60;99.40
20845;DHT22;10583;49.084;8.646;2023-03-19T11:43:47;18.30;98.90
20845;DHT22;10583;49.084;8.646;2023-03-19T11:46:42;18.00;98.80
20845;DHT22;10583;49.084;8.646;2023-03-19T11:49:37;17.80;99.40
20845;DHT22;10583;49.084;8.646;2023-03-19T11:52:13;17.60;99.90
20845;DHT22;10583;49.084;8.646;2023-03-19T11:54:52;17.30;99.80
20845;DHT22;10583;49.084;8.646;2023-03-19T11:57:32;17.20;99.90
20845;DHT22;10583;49.084;8.646;2023-03-19T12:00:10;17.20;99.90
20845;DHT22;10583;49.084;8.646;2023-03-19T12:03:15;17.20;99.90
20845;DHT22;10583;49.084;8.646;2023-03-19T12:05:52;17.10;99.90
20845;DHT22;10583;49.084;8.646;2023-03-19T12:08:30;17.20;99.90
20845;DHT22;10583;49.084;8.646;2023-03-19T12:11:07;17.20;99.90
20845;DHT22;10583;49.084;8.646;2023-03-19T12:13:55;17.40;99.90
20845;DHT22;10583;49.084;8.646;2023-03-19T12:16:31;17.40;99.90
20845;DHT22;10583;49.084;8.646;2023-03-19T12:19:31;17.40;99.90
20845;DHT22;10583;49.084;8.646;2023-03-19T12:22:08;17.60;99.90
20845;DHT22;10583;49.084;8.646;2023-03-19T12:24:53;17.80;99.90
20845;DHT22;10583;49.084;8.646;2023-03-19T12:27:28;18.10;99.90
20845;DHT22;10583;49.084;8.646;2023-03-19T12:30:07;18.20;99.90
20845;DHT22;10583;49.084;8.646;2023-03-19T12:32:56;18.10;99.90
20845;DHT22;10583;49.084;8.646;2023-03-19T12:35:30;18.10;99.90
20845;DHT22;10583;49.084;8.646;2023-03-19T12:38:03;18.00;99.90
20845;DHT22;10583;49.084;8.646;2023-03-19T12:40:35;18.00;99.90
20845;DHT22;10583;49.084;8.646;2023-03-19T12:43:07;18.10;99.90
20845;DHT22;10583;49.084;8.646;2023-03-19T12:45:43;18.10;99.90
20845;DHT22;10583;49.084;8.646;2023-03-19T12:48:14;18.00;99.90
20845;DHT22;10583;49.084;8.646;2023-03-19T12:50:46;18.00;99.90
20845;DHT22;10583;49.084;8.646;2023-03-19T12:53:23;17.80;99.90
20845;DHT22;10583;49.084;8.646;2023-03-19T12:55:54;18.10;99.90
20845;DHT22;10583;49.084;8.646;2023-03-19T12:58:32;18.30;99.90
20845;DHT22;10583;49.084;8.646;2023-03-19T13:01:06;18.10;99.90
20845;DHT22;10583;49.084;8.646;2023-03-19T13:03:42;17.90;99.90
20845;DHT22;10583;49.084;8.646;2023-03-19T13:06:16;17.80;99.90
20845;DHT22;10583;49.084;8.646;2023-03-19T13:08:48;17.40;99.90
20845;DHT22;10583;49.084;8.646;2023-03-19T13:11:28;17.30;99.90
20845;DHT22;10583;49.084;8.646;2023-03-19T13:14:00;17.10;99.90
20845;DHT22;10583;49.084;8.646;2023-03-19T13:16:36;17.10;99.90
20845;DHT22;10583;49.084;8.646;2023-03-19T13:19:15;17.00;99.90
20845;DHT22;10583;49.084;8.646;2023-03-19T13:21:44;16.80;99.90
20845;DHT22;10583;49.084;8.646;2023-03-19T13:24:18;16.60;99.90
20845;DHT22;10583;49.084;8.646;2023-03-19T13:26:48;16.50;99.90
20845;DHT22;10583;49.084;8.646;2023-03-19T13:29:18;16.40;99.90
20845;DHT22;10583;49.084;8.646;2023-03-19T13:31:47;16.40;99.90
20845;DHT22;10583;49.084;8.646;2023-03-19T13:34:20;16.40;99.90
20845;DHT22;10583;49.084;8.646;2023-03-19T13:36:52;16.20;99.90
20845;DHT22;10583;49.084;8.646;2023-03-19T13:39:24;16.20;99.90
20845;DHT22;10583;49.084;8.646;2023-03-19T13:42:05;16.20;99.90
20845;DHT22;10583;49.084;8.646;2023-03-19T13:44:34;16.10;99.90
20845;DHT22;10583;49.084;8.646;2023-03-19T13:47:36;16.10;99.90
20845;DHT22;10583;49.084;8.646;2023-03-19T13:50:21;16.10;99.90
20845;DHT22;10583;49.084;8.646;2023-03-19T13:52:50;16.00;99.90
20845;DHT22;10583;49.084;8.646;2023-03-19T13:55:31;15.90;99.90
20845;DHT22;10583;49.084;8.646;2023-03-19T13:58:12;15.90;99.90
20845;DHT22;10583;49.084;8.646;2023-03-19T14:00:57;15.90;99.90
20845;DHT22;10583;49.084;8.646;2023-03-19T14:03:26;15.90;99.90
20845;DHT22;10583;49.084;8.646;2023-03-19T14:05:55;16.00;99.90
20845;DHT22;10583;49.084;8.646;2023-03-19T14:08:24;16.20;99.90
20845;DHT22;10583;49.084;8.646;2023-03-19T14:10:53;16.30;99.90
20845;DHT22;10583;49.084;8.646;2023-03-19T14:13:35;16.30;99.90
20845;DHT22;10583;49.084;8.646;2023-03-19T14:16:06;16.40;99.90
20845;DHT22;10583;49.084;8.646;2023-03-19T14:18:40;16.30;99.90
20845;DHT22;10583;49.084;8.646;2023-03-19T14:21:10;16.30;99.90
20845;DHT22;10583;49.084;8.646;2023-03-19T14:23:40;16.20;99.90
20845;DHT22;10583;49.084;8.646;2023-03-19T14:26:14;16.10;99.90
20845;DHT22;10583;49.084;8.646;2023-03-19T14:28:47;15.90;99.90
20845;DHT22;10583;49.084;8.646;2023-03-19T14:31:50;15.80;99.90
20845;DHT22;10583;49.084;8.646;2023-03-19T14:34:23;15.80;99.90
20845;DHT22;10583;49.084;8.646;2023-03-19T14:36:57;15.80;99.90
20845;DHT22;10583;49.084;8.646;2023-03-19T14:39:27;15.90;99.90
20845;DHT22;10583;49.084;8.646;2023-03-19T14:42:00;16.00;99.90
20845;DHT22;10583;49.084;8.646;2023-03-19T14:44:47;16.10;99.90
20845;DHT22;10583;49.084;8.646;2023-03-19T14:47:25;16.20;99.90
20845;DHT22;10583;49.084;8.646;2023-03-19T14:53:26;16.30;99.90
20845;DHT22;10583;49.084;8.646;2023-03-19T14:55:53;16.40;99.90
20845;DHT22;10583;49.084;8.646;2023-03-19T14:58:21;16.20;99.90
20845;DHT22;10583;49.084;8.646;2023-03-19T15:00:49;16.20;99.90
20845;DHT22;10583;49.084;8.646;2023-03-19T15:03:22;16.10;99.90
20845;DHT22;10583;49.084;8.646;2023-03-19T15:05:56;15.90;99.90
20845;DHT22;10583;49.084;8.646;2023-03-19T15:08:26;15.60;99.90
20845;DHT22;10583;49.084;8.646;2023-03-19T15:11:03;15.50;99.90
20845;DHT22;10583;49.084;8.646;2023-03-19T15:13:58;15.60;99.90
20845;DHT22;10583;49.084;8.646;2023-03-19T15:16:36;15.60;99.90
20845;DHT22;10583;49.084;8.646;2023-03-19T15:19:08;15.50;99.90
20845;DHT22;10583;49.084;8.646;2023-03-19T15:21:35;15.50;99.90
20845;DHT22;10583;49.084;8.646;2023-03-19T15:24:04;15.40;99.90
20845;DHT22;10583;49.084;8.646;2023-03-19T15:26:34;15.20;99.90
20845;DHT22;10583;49.084;8.646;2023-03-19T15:29:01;15.10;99.90
20845;DHT22;10583;49.084;8.646;2023-03-19T15:31:50;15.00;99.90
20845;DHT22;10583;49.084;8.646;2023-03-19T15:34:19;14.90;99.90
20845;DHT22;10583;49.084;8.646;2023-03-19T15:36:46;14.90;99.90
20845;DHT22;10583;49.084;8.646;2023-03-19T15:39:16;14.90;99.90
20845;DHT22;10583;49.084;8.646;2023-03-19T15:41:47;15.00;99.90
20845;DHT22;10583;49.084;8.646;2023-03-19T15:44:17;15.10;99.90
20845;DHT22;10583;49.084;8.646;2023-03-19T15:46:46;15.20;99.90
20845;DHT22;10583;49.084;8.646;2023-03-19T15:49:16;15.30;99.90
20845;DHT22;10583;49.084;8.646;2023-03-19T15:51:46;15.40;99.90
20845;DHT22;10583;49.084;8.646;2023-03-19T15:54:18;15.50;99.90
20845;DHT22;10583;49.084;8.646;2023-03-19T15:56:47;15.70;99.90
20845;DHT22;10583;49.084;8.646;2023-03-19T15:59:15;15.70;99.90
20845;DHT22;10583;49.084;8.646;2023-03-19T16:01:43;15.70;99.90
20845;DHT22;10583;49.084;8.646;2023-03-19T16:04:15;15.60;99.90